sensor_id;sensor_type;location;lat;lon;timestamp;temperature;humidity
13960;DHT22;7052;51.050;3.716;2022-08-01T00:01:49;19.90;99.90
13960;DHT22;7052;51.050;3.716;2022-08-01T00:04:15;19.90;99.90
13960;DHT22;7052;51.050;3.716;2022-08-01T00:06:44;19.90;99.90
13960;DHT22;7052;51.050;3.716;2022-08-01T00:09:11;19.90;99.90
13960;DHT22;7052;51.050;3.716;2022-08-01T00:11:37;19.90;99.90
13960;DHT22;7052;51.050;3.716;2022-08-01T00:14:04;19.90;99.90
13960;DHT22;7052;51.050;3.716;2022-08-01T00:16:31;19.80;99.90
13960;DHT22;7052;51.050;3.716;2022-08-01T00:18:58;19.80;99.90
13960;DHT22;7052;51.050;3.716;2022-08-01T00:21:25;19.80;99.90
13960;DHT22;7052;51.050;3.716;2022-08-01T00:23:53;19.80;99.90
13960;DHT22;7052;51.050;3.716;2022-08-01T00:26:20;19.70;99.90
13960;DHT22;7052;51.050;3.716;2022-08-01T00:28:47;19.70;99.90
13960;DHT22;7052;51.050;3.716;2022-08-01T00:31:14;19.70;99.90
13960;DHT22;7052;51.050;3.716;2022-08-01T00:33:41;19.80;99.90
13960;DHT22;7052;51.050;3.716;2022-08-01T00:36:07;19.80;99.90
13960;DHT22;7052;51.050;3.716;2022-08-01T00:38:34;19.80;99.90
13960;DHT22;7052;51.050;3.716;2022-08-01T00:41:03;19.80;99.90
13960;DHT22;7052;51.050;3.716;2022-08-01T00:43:29;19.80;99.90
13960;DHT22;7052;51.050;3.716;2022-08-01T00:45:56;19.70;99.90
13960;DHT22;7052;51.050;3.716;2022-08-01T00:48:23;19.70;99.90
13960;DHT22;7052;51.050;3.716;2022-08-01T00:50:50;19.70;99.90
13960;DHT22;7052;51.050;3.716;2022-08-01T00:53:17;19.70;99.90
13960;DHT22;7052;51.050;3.716;2022-08-01T00:55:44;19.70;99.90
13960;DHT22;7052;51.050;3.716;2022-08-01T00:58:12;19.70;99.90
13960;DHT22;7052;51.050;3.716;2022-08-01T01:00:39;19.70;99.90
13960;DHT22;7052;51.050;3.716;2022-08-01T01:03:06;19.60;99.90
13960;DHT22;7052;51.050;3.716;2022-08-01T01:05:40;19.70;99.90
13960;DHT22;7052;51.050;3.716;2022-08-01T01:08:13;19.70;99.90
13960;DHT22;7052;51.050;3.716;2022-08-01T01:10:46;19.70;99.90
13960;DHT22;7052;51.050;3.716;2022-08-01T01:13:22;19.70;99.90
13960;DHT22;7052;51.050;3.716;2022-08-01T01:15:57;19.70;99.90
13960;DHT22;7052;51.050;3.716;2022-08-01T01:18:29;19.70;99.90
13960;DHT22;7052;51.050;3.716;2022-08-01T01:21:03;19.70;99.90
13960;DHT22;7052;51.050;3.716;2022-08-01T01:23:44;19.60;99.90
13960;DHT22;7052;51.050;3.716;2022-08-01T01:26:26;19.60;99.90
13960;DHT22;7052;51.050;3.716;2022-08-01T01:29:06;19.70;99.90
13960;DHT22;7052;51.050;3.716;2022-08-01T01:31:42;19.60;99.90
13960;DHT22;7052;51.050;3.716;2022-08-01T01:34:11;19.60;99.90
13960;DHT22;7052;51.050;3.716;2022-08-01T01:36:39;19.60;99.90
13960;DHT22;7052;51.050;3.716;2022-08-01T01:39:07;19.60;99.90
13960;DHT22;7052;51.050;3.716;2022-08-01T01:41:35;19.60;99.90
13960;DHT22;7052;51.050;3.716;2022-08-01T01:44:04;19.50;99.90
13960;DHT22;7052;51.050;3.716;2022-08-01T01:46:32;19.50;99.90
13960;DHT22;7052;51.050;3.716;2022-08-01T01:49:00;19.40;99.90
13960;DHT22;7052;51.050;3.716;2022-08-01T01:51:28;19.40;99.90
13960;DHT22;7052;51.050;3.716;2022-08-01T01:53:57;19.40;99.90
13960;DHT22;7052;51.050;3.716;2022-08-01T01:56:26;19.40;99.90
13960;DHT22;7052;51.050;3.716;2022-08-01T01:58:56;19.40;99.90
13960;DHT22;7052;51.050;3.716;2022-08-01T02:01:28;19.30;99.90
13960;DHT22;7052;51.050;3.716;2022-08-01T02:03:56;19.20;99.90
13960;DHT22;7052;51.050;3.716;2022-08-01T02:06:25;19.20;99.90
13960;DHT22;7052;51.050;3.716;2022-08-01T02:08:54;19.20;99.90
13960;DHT22;7052;51.050;3.716;2022-08-01T02:11:21;19.20;99.90
13960;DHT22;7052;51.050;3.716;2022-08-01T02:13:53;19.30;99.90
13960;DHT22;7052;51.050;3.716;2022-08-01T02:16:23;19.20;99.90
13960;DHT22;7052;51.050;3.716;2022-08-01T02:18:52;19.20;99.90
13960;DHT22;7052;51.050;3.716;2022-08-01T02:21:25;19.30;99.90
13960;DHT22;7052;51.050;3.716;2022-08-01T02:23:54;19.30;99.90
13960;DHT22;7052;51.050;3.716;2022-08-01T02:26:22;19.30;99.90
13960;DHT22;7052;51.050;3.716;2022-08-01T02:28:53;19.30;99.90
13960;DHT22;7052;51.050;3.716;2022-08-01T02:31:21;19.30;99.90
13960;DHT22;7052;51.050;3.716;2022-08-01T02:33:56;19.30;99.90
13960;DHT22;7052;51.050;3.716;2022-08-01T02:36:26;19.30;99.90
13960;DHT22;7052;51.050;3.716;2022-08-01T02:38:55;19.30;99.90
13960;DHT22;7052;51.050;3.716;2022-08-01T02:41:25;19.30;99.90
13960;DHT22;7052;51.050;3.716;2022-08-01T02:43:53;19.30;99.90
13960;DHT22;7052;51.050;3.716;2022-08-01T02:46:33;19.30;99.90
13960;DHT22;7052;51.050;3.716;2022-08-01T02:49:05;19.30;99.90
13960;DHT22;7052;51.050;3.716;2022-08-01T02:51:34;19.30;99.90
13960;DHT22;7052;51.050;3.716;2022-08-01T02:54:03;19.30;99.90
13960;DHT22;7052;51.050;3.716;2022-08-01T02:56:32;19.40;99.90
13960;DHT22;7052;51.050;3.716;2022-08-01T02:59:05;19.40;99.90
13960;DHT22;7052;51.050;3.716;2022-08-01T03:01:33;19.30;99.90
13960;DHT22;7052;51.050;3.716;2022-08-01T03:04:03;19.40;99.90
13960;DHT22;7052;51.050;3.716;2022-08-01T03:06:31;19.30;99.90
13960;DHT22;7052;51.050;3.716;2022-08-01T03:09:00;19.50;99.90
13960;DHT22;7052;51.050;3.716;2022-08-01T03:11:29;19.30;99.90
13960;DHT22;7052;51.050;3.716;2022-08-01T03:13:59;19.30;99.90
13960;DHT22;7052;51.050;3.716;2022-08-01T03:16:28;19.40;99.90
13960;DHT22;7052;51.050;3.716;2022-08-01T03:18:57;19.40;99.90
13960;DHT22;7052;51.050;3.716;2022-08-01T03:21:26;19.40;99.90
13960;DHT22;7052;51.050;3.716;2022-08-01T03:23:55;19.40;99.90
13960;DHT22;7052;51.050;3.716;2022-08-01T03:26:26;19.40;99.90
13960;DHT22;7052;51.050;3.716;2022-08-01T03:28:56;19.40;99.90
13960;DHT22;7052;51.050;3.716;2022-08-01T03:31:25;19.50;99.90
13960;DHT22;7052;51.050;3.716;2022-08-01T03:33:52;19.40;99.90
13960;DHT22;7052;51.050;3.716;2022-08-01T03:36:25;19.40;99.90
13960;DHT22;7052;51.050;3.716;2022-08-01T03:38:56;19.40;99.90
13960;DHT22;7052;51.050;3.716;2022-08-01T03:41:26;19.40;99.90
13960;DHT22;7052;51.050;3.716;2022-08-01T03:43:56;19.40;99.90
13960;DHT22;7052;51.050;3.716;2022-08-01T03:46:30;19.40;99.90
13960;DHT22;7052;51.050;3.716;2022-08-01T03:49:03;19.30;99.90
13960;DHT22;7052;51.050;3.716;2022-08-01T03:51:33;19.40;99.90
13960;DHT22;7052;51.050;3.716;2022-08-01T03:54:01;19.40;99.90
13960;DHT22;7052;51.050;3.716;2022-08-01T03:56:29;19.40;99.90
13960;DHT22;7052;51.050;3.716;2022-08-01T03:58:58;19.40;99.90
13960;DHT22;7052;51.050;3.716;2022-08-01T04:01:27;19.40;99.90
13960;DHT22;7052;51.050;3.716;2022-08-01T04:03:54;19.40;99.90
13960;DHT22;7052;51.050;3.716;2022-08-01T04:06:21;19.30;99.90
13960;DHT22;7052;51.050;3.716;2022-08-01T04:08:48;19.30;99.90
13960;DHT22;7052;51.050;3.716;2022-08-01T04:11:24;19.30;99.90
13960;DHT22;7052;51.050;3.716;2022-08-01T04:13:51;19.30;99.90
13960;DHT22;7052;51.050;3.716;2022-08-01T04:16:19;19.30;99.90
13960;DHT22;7052;51.050;3.716;2022-08-01T04:18:46;19.30;99.90
13960;DHT22;7052;51.050;3.716;2022-08-01T04:21:13;19.20;99.90
13960;DHT22;7052;51.050;3.716;2022-08-01T04:23:41;19.20;99.90
13960;DHT22;7052;51.050;3.716;2022-08-01T04:26:11;19.20;99.90
13960;DHT22;7052;51.050;3.716;2022-08-01T04:28:42;19.20;99.90
13960;DHT22;7052;51.050;3.716;2022-08-01T04:31:10;19.20;99.90
13960;DHT22;7052;51.050;3.716;2022-08-01T04:33:40;19.10;99.90
13960;DHT22;7052;51.050;3.716;2022-08-01T04:36:09;19.20;99.90
13960;DHT22;7052;51.050;3.716;2022-08-01T04:38:37;19.20;99.90
13960;DHT22;7052;51.050;3.716;2022-08-01T04:41:06;19.20;99.90
13960;DHT22;7052;51.050;3.716;2022-08-01T04:43:36;19.10;99.90
13960;DHT22;7052;51.050;3.716;2022-08-01T04:46:05;19.20;99.90
13960;DHT22;7052;51.050;3.716;2022-08-01T04:48:36;19.20;99.90
13960;DHT22;7052;51.050;3.716;2022-08-01T04:51:03;19.20;99.90
13960;DHT22;7052;51.050;3.716;2022-08-01T04:53:30;19.20;99.90
13960;DHT22;7052;51.050;3.716;2022-08-01T04:55:57;19.20;99.90
13960;DHT22;7052;51.050;3.716;2022-08-01T04:58:24;19.20;99.90
13960;DHT22;7052;51.050;3.716;2022-08-01T05:00:52;19.20;99.90
13960;DHT22;7052;51.050;3.716;2022-08-01T05:03:20;19.30;99.90
13960;DHT22;7052;51.050;3.716;2022-08-01T05:05:47;19.30;99.90
13960;DHT22;7052;51.050;3.716;2022-08-01T05:08:14;19.30;99.90
13960;DHT22;7052;51.050;3.716;2022-08-01T05:10:41;19.30;99.90
13960;DHT22;7052;51.050;3.716;2022-08-01T05:13:08;19.30;99.90
13960;DHT22;7052;51.050;3.716;2022-08-01T05:15:36;19.30;99.90
13960;DHT22;7052;51.050;3.716;2022-08-01T05:18:03;19.40;99.90
13960;DHT22;7052;51.050;3.716;2022-08-01T05:20:31;19.40;99.90
13960;DHT22;7052;51.050;3.716;2022-08-01T05:22:58;19.40;99.90
13960;DHT22;7052;51.050;3.716;2022-08-01T05:25:25;19.50;99.90
13960;DHT22;7052;51.050;3.716;2022-08-01T05:27:52;19.50;99.90
13960;DHT22;7052;51.050;3.716;2022-08-01T05:30:19;19.50;99.90
13960;DHT22;7052;51.050;3.716;2022-08-01T05:32:45;19.60;99.90
13960;DHT22;7052;51.050;3.716;2022-08-01T05:35:12;19.50;99.90
13960;DHT22;7052;51.050;3.716;2022-08-01T05:37:40;19.50;99.90
13960;DHT22;7052;51.050;3.716;2022-08-01T05:40:08;19.60;99.90
13960;DHT22;7052;51.050;3.716;2022-08-01T05:42:35;19.60;99.90
13960;DHT22;7052;51.050;3.716;2022-08-01T05:45:02;19.60;99.90
13960;DHT22;7052;51.050;3.716;2022-08-01T05:47:29;19.70;99.90
13960;DHT22;7052;51.050;3.716;2022-08-01T05:49:56;19.70;99.90
13960;DHT22;7052;51.050;3.716;2022-08-01T05:52:23;19.70;99.90
13960;DHT22;7052;51.050;3.716;2022-08-01T05:54:51;19.70;99.90
13960;DHT22;7052;51.050;3.716;2022-08-01T05:57:18;19.70;99.90
13960;DHT22;7052;51.050;3.716;2022-08-01T05:59:45;19.70;99.90
13960;DHT22;7052;51.050;3.716;2022-08-01T06:02:11;19.80;99.90
13960;DHT22;7052;51.050;3.716;2022-08-01T06:04:38;19.70;99.90
13960;DHT22;7052;51.050;3.716;2022-08-01T06:07:05;19.80;99.90
13960;DHT22;7052;51.050;3.716;2022-08-01T06:09:32;19.90;99.90
13960;DHT22;7052;51.050;3.716;2022-08-01T06:12:00;20.10;99.90
13960;DHT22;7052;51.050;3.716;2022-08-01T06:14:27;20.20;99.90
13960;DHT22;7052;51.050;3.716;2022-08-01T06:16:54;20.40;99.90
13960;DHT22;7052;51.050;3.716;2022-08-01T06:19:21;20.50;99.90
13960;DHT22;7052;51.050;3.716;2022-08-01T06:21:47;20.60;99.90
13960;DHT22;7052;51.050;3.716;2022-08-01T06:24:14;20.70;99.90
13960;DHT22;7052;51.050;3.716;2022-08-01T06:26:41;20.70;99.90
13960;DHT22;7052;51.050;3.716;2022-08-01T06:29:09;20.80;99.90
13960;DHT22;7052;51.050;3.716;2022-08-01T06:31:36;21.00;99.90
13960;DHT22;7052;51.050;3.716;2022-08-01T06:34:03;20.90;99.90
13960;DHT22;7052;51.050;3.716;2022-08-01T06:36:30;20.90;99.90
13960;DHT22;7052;51.050;3.716;2022-08-01T06:38:57;20.90;99.90
13960;DHT22;7052;51.050;3.716;2022-08-01T06:41:24;20.90;99.90
13960;DHT22;7052;51.050;3.716;2022-08-01T06:43:50;20.90;99.90
13960;DHT22;7052;51.050;3.716;2022-08-01T06:46:19;20.90;99.90
13960;DHT22;7052;51.050;3.716;2022-08-01T06:48:45;20.90;99.90
13960;DHT22;7052;51.050;3.716;2022-08-01T06:51:12;20.90;99.90
13960;DHT22;7052;51.050;3.716;2022-08-01T06:53:43;20.90;99.90
13960;DHT22;7052;51.050;3.716;2022-08-01T06:56:09;20.90;99.90
13960;DHT22;7052;51.050;3.716;2022-08-01T06:58:36;20.90;99.90
13960;DHT22;7052;51.050;3.716;2022-08-01T07:01:04;20.90;99.90
13960;DHT22;7052;51.050;3.716;2022-08-01T07:03:34;21.00;99.90
13960;DHT22;7052;51.050;3.716;2022-08-01T07:06:01;21.00;99.90
13960;DHT22;7052;51.050;3.716;2022-08-01T07:08:28;21.20;99.90
13960;DHT22;7052;51.050;3.716;2022-08-01T07:10:55;21.30;99.90
13960;DHT22;7052;51.050;3.716;2022-08-01T07:13:25;21.50;99.90
13960;DHT22;7052;51.050;3.716;2022-08-01T07:15:52;21.70;99.90
13960;DHT22;7052;51.050;3.716;2022-08-01T07:18:19;21.80;99.90
13960;DHT22;7052;51.050;3.716;2022-08-01T07:20:47;21.90;99.90
13960;DHT22;7052;51.050;3.716;2022-08-01T07:23:14;22.00;99.90
13960;DHT22;7052;51.050;3.716;2022-08-01T07:25:41;22.00;99.90
13960;DHT22;7052;51.050;3.716;2022-08-01T07:28:08;22.00;99.90
13960;DHT22;7052;51.050;3.716;2022-08-01T07:30:35;22.10;99.90
13960;DHT22;7052;51.050;3.716;2022-08-01T07:33:02;22.00;99.90
13960;DHT22;7052;51.050;3.716;2022-08-01T07:35:29;22.00;99.90
13960;DHT22;7052;51.050;3.716;2022-08-01T07:37:57;22.10;99.90
13960;DHT22;7052;51.050;3.716;2022-08-01T07:40:24;22.20;99.90
13960;DHT22;7052;51.050;3.716;2022-08-01T07:42:51;22.50;99.90
13960;DHT22;7052;51.050;3.716;2022-08-01T07:45:18;22.80;99.90
13960;DHT22;7052;51.050;3.716;2022-08-01T07:47:46;23.00;99.90
13960;DHT22;7052;51.050;3.716;2022-08-01T07:50:15;23.30;99.90
13960;DHT22;7052;51.050;3.716;2022-08-01T07:52:43;23.70;99.90
13960;DHT22;7052;51.050;3.716;2022-08-01T07:55:12;23.90;99.90
13960;DHT22;7052;51.050;3.716;2022-08-01T07:57:38;23.90;99.90
13960;DHT22;7052;51.050;3.716;2022-08-01T08:00:06;23.80;99.90
13960;DHT22;7052;51.050;3.716;2022-08-01T08:02:35;23.60;99.90
13960;DHT22;7052;51.050;3.716;2022-08-01T08:05:01;23.40;99.90
13960;DHT22;7052;51.050;3.716;2022-08-01T08:07:29;23.50;99.90
13960;DHT22;7052;51.050;3.716;2022-08-01T08:09:56;23.40;99.90
13960;DHT22;7052;51.050;3.716;2022-08-01T08:12:24;23.30;99.90
13960;DHT22;7052;51.050;3.716;2022-08-01T08:14:51;23.30;99.90
13960;DHT22;7052;51.050;3.716;2022-08-01T08:17:18;23.30;99.90
13960;DHT22;7052;51.050;3.716;2022-08-01T08:19:47;23.30;99.90
13960;DHT22;7052;51.050;3.716;2022-08-01T08:22:14;23.40;99.90
13960;DHT22;7052;51.050;3.716;2022-08-01T08:24:41;23.30;99.90
13960;DHT22;7052;51.050;3.716;2022-08-01T08:27:07;23.20;99.90
13960;DHT22;7052;51.050;3.716;2022-08-01T08:29:36;23.20;99.90
13960;DHT22;7052;51.050;3.716;2022-08-01T08:32:03;23.10;99.90
13960;DHT22;7052;51.050;3.716;2022-08-01T08:34:30;23.00;99.90
13960;DHT22;7052;51.050;3.716;2022-08-01T08:36:58;23.00;99.90
13960;DHT22;7052;51.050;3.716;2022-08-01T08:39:25;23.10;99.90
13960;DHT22;7052;51.050;3.716;2022-08-01T08:41:52;23.30;99.90
13960;DHT22;7052;51.050;3.716;2022-08-01T08:44:19;23.40;99.90
13960;DHT22;7052;51.050;3.716;2022-08-01T08:46:49;23.50;99.80
13960;DHT22;7052;51.050;3.716;2022-08-01T08:49:18;23.50;99.30
13960;DHT22;7052;51.050;3.716;2022-08-01T08:51:48;23.60;99.40
13960;DHT22;7052;51.050;3.716;2022-08-01T08:54:16;23.70;99.00
13960;DHT22;7052;51.050;3.716;2022-08-01T08:56:43;23.90;98.60
13960;DHT22;7052;51.050;3.716;2022-08-01T08:59:12;24.00;98.10
13960;DHT22;7052;51.050;3.716;2022-08-01T09:01:40;24.20;97.50
13960;DHT22;7052;51.050;3.716;2022-08-01T09:04:09;24.20;96.80
13960;DHT22;7052;51.050;3.716;2022-08-01T09:06:36;24.30;95.80
13960;DHT22;7052;51.050;3.716;2022-08-01T09:09:04;24.30;94.70
13960;DHT22;7052;51.050;3.716;2022-08-01T09:11:32;24.30;93.60
13960;DHT22;7052;51.050;3.716;2022-08-01T09:14:04;24.30;92.70
13960;DHT22;7052;51.050;3.716;2022-08-01T09:16:33;24.30;93.00
13960;DHT22;7052;51.050;3.716;2022-08-01T09:19:12;24.40;92.70
13960;DHT22;7052;51.050;3.716;2022-08-01T09:21:40;24.50;92.00
13960;DHT22;7052;51.050;3.716;2022-08-01T09:24:21;24.50;91.60
13960;DHT22;7052;51.050;3.716;2022-08-01T09:26:48;24.70;91.30
13960;DHT22;7052;51.050;3.716;2022-08-01T09:29:21;24.90;90.10
13960;DHT22;7052;51.050;3.716;2022-08-01T09:31:48;25.10;88.10
13960;DHT22;7052;51.050;3.716;2022-08-01T09:34:24;25.30;86.90
13960;DHT22;7052;51.050;3.716;2022-08-01T09:36:53;25.40;84.90
13960;DHT22;7052;51.050;3.716;2022-08-01T09:39:23;25.40;82.10
13960;DHT22;7052;51.050;3.716;2022-08-01T09:41:51;25.40;82.30
13960;DHT22;7052;51.050;3.716;2022-08-01T09:44:19;25.30;80.90
13960;DHT22;7052;51.050;3.716;2022-08-01T09:46:50;25.20;80.10
13960;DHT22;7052;51.050;3.716;2022-08-01T09:49:28;25.10;82.30
13960;DHT22;7052;51.050;3.716;2022-08-01T09:51:55;25.10;79.50
13960;DHT22;7052;51.050;3.716;2022-08-01T09:54:31;25.00;81.70
13960;DHT22;7052;51.050;3.716;2022-08-01T09:57:10;25.10;83.20
13960;DHT22;7052;51.050;3.716;2022-08-01T09:59:38;25.10;83.80
13960;DHT22;7052;51.050;3.716;2022-08-01T10:02:08;25.10;83.80
13960;DHT22;7052;51.050;3.716;2022-08-01T10:04:37;25.20;83.00
13960;DHT22;7052;51.050;3.716;2022-08-01T10:07:05;25.30;80.20
13960;DHT22;7052;51.050;3.716;2022-08-01T10:09:34;25.20;80.00
13960;DHT22;7052;51.050;3.716;2022-08-01T10:12:02;25.20;79.20
13960;DHT22;7052;51.050;3.716;2022-08-01T10:14:30;25.10;79.70
13960;DHT22;7052;51.050;3.716;2022-08-01T10:17:00;25.00;80.60
13960;DHT22;7052;51.050;3.716;2022-08-01T10:19:29;25.00;82.20
13960;DHT22;7052;51.050;3.716;2022-08-01T10:22:00;25.10;83.00
13960;DHT22;7052;51.050;3.716;2022-08-01T10:24:29;25.10;83.20
13960;DHT22;7052;51.050;3.716;2022-08-01T10:26:58;25.10;82.20
13960;DHT22;7052;51.050;3.716;2022-08-01T10:29:35;25.10;82.90
13960;DHT22;7052;51.050;3.716;2022-08-01T10:32:04;25.30;81.80
13960;DHT22;7052;51.050;3.716;2022-08-01T10:34:33;25.50;80.30
13960;DHT22;7052;51.050;3.716;2022-08-01T10:37:02;25.60;79.10
13960;DHT22;7052;51.050;3.716;2022-08-01T10:39:30;25.60;78.90
13960;DHT22;7052;51.050;3.716;2022-08-01T10:41:58;25.70;77.10
13960;DHT22;7052;51.050;3.716;2022-08-01T10:44:27;25.90;75.00
13960;DHT22;7052;51.050;3.716;2022-08-01T10:46:57;25.90;72.90
13960;DHT22;7052;51.050;3.716;2022-08-01T10:49:27;25.80;74.00
13960;DHT22;7052;51.050;3.716;2022-08-01T10:51:55;25.90;73.00
13960;DHT22;7052;51.050;3.716;2022-08-01T10:54:26;25.90;73.20
13960;DHT22;7052;51.050;3.716;2022-08-01T10:56:53;25.90;71.10
13960;DHT22;7052;51.050;3.716;2022-08-01T10:59:23;26.00;71.10
13960;DHT22;7052;51.050;3.716;2022-08-01T11:01:58;25.90;70.80
13960;DHT22;7052;51.050;3.716;2022-08-01T11:04:34;25.90;71.20
13960;DHT22;7052;51.050;3.716;2022-08-01T11:07:08;25.90;71.20
13960;DHT22;7052;51.050;3.716;2022-08-01T11:09:41;25.70;70.40
13960;DHT22;7052;51.050;3.716;2022-08-01T11:12:10;25.60;71.50
13960;DHT22;7052;51.050;3.716;2022-08-01T11:17:42;25.30;72.20
13960;DHT22;7052;51.050;3.716;2022-08-01T11:20:14;25.30;70.70
13960;DHT22;7052;51.050;3.716;2022-08-01T11:26:08;25.50;62.20
13960;DHT22;7052;51.050;3.716;2022-08-01T11:28:36;25.70;62.00
13960;DHT22;7052;51.050;3.716;2022-08-01T11:31:27;25.90;61.80
13960;DHT22;7052;51.050;3.716;2022-08-01T11:33:54;26.20;61.90
13960;DHT22;7052;51.050;3.716;2022-08-01T11:36:21;26.30;61.50
13960;DHT22;7052;51.050;3.716;2022-08-01T11:39:15;26.30;61.60
13960;DHT22;7052;51.050;3.716;2022-08-01T11:41:45;26.20;62.30
13960;DHT22;7052;51.050;3.716;2022-08-01T11:44:14;26.40;60.90
13960;DHT22;7052;51.050;3.716;2022-08-01T11:46:56;26.50;59.70
13960;DHT22;7052;51.050;3.716;2022-08-01T11:52:25;26.70;58.60
13960;DHT22;7052;51.050;3.716;2022-08-01T11:54:53;26.80;58.10
13960;DHT22;7052;51.050;3.716;2022-08-01T11:57:23;27.00;56.60
13960;DHT22;7052;51.050;3.716;2022-08-01T11:59:51;27.20;53.10
13960;DHT22;7052;51.050;3.716;2022-08-01T12:02:23;27.40;51.50
13960;DHT22;7052;51.050;3.716;2022-08-01T12:04:53;27.60;51.70
13960;DHT22;7052;51.050;3.716;2022-08-01T12:07:20;27.90;51.70
13960;DHT22;7052;51.050;3.716;2022-08-01T12:09:48;28.10;51.10
13960;DHT22;7052;51.050;3.716;2022-08-01T12:12:24;28.20;49.80
13960;DHT22;7052;51.050;3.716;2022-08-01T12:14:53;28.20;49.10
13960;DHT22;7052;51.050;3.716;2022-08-01T12:17:37;28.20;49.50
13960;DHT22;7052;51.050;3.716;2022-08-01T12:20:06;28.30;49.30
13960;DHT22;7052;51.050;3.716;2022-08-01T12:22:33;28.40;49.70
13960;DHT22;7052;51.050;3.716;2022-08-01T12:25:08;28.50;48.80
13960;DHT22;7052;51.050;3.716;2022-08-01T12:27:37;28.60;48.00
13960;DHT22;7052;51.050;3.716;2022-08-01T12:30:06;28.50;48.20
13960;DHT22;7052;51.050;3.716;2022-08-01T12:32:34;28.60;46.70
13960;DHT22;7052;51.050;3.716;2022-08-01T12:35:03;28.70;47.30
13960;DHT22;7052;51.050;3.716;2022-08-01T12:37:31;28.80;47.20
13960;DHT22;7052;51.050;3.716;2022-08-01T12:39:59;28.80;45.70
13960;DHT22;7052;51.050;3.716;2022-08-01T12:42:26;28.90;46.70
13960;DHT22;7052;51.050;3.716;2022-08-01T12:44:55;28.90;47.30
13960;DHT22;7052;51.050;3.716;2022-08-01T12:47:24;28.80;47.20
13960;DHT22;7052;51.050;3.716;2022-08-01T12:49:51;28.70;48.20
13960;DHT22;7052;51.050;3.716;2022-08-01T12:52:18;28.70;47.50
13960;DHT22;7052;51.050;3.716;2022-08-01T12:55:01;28.70;47.30
13960;DHT22;7052;51.050;3.716;2022-08-01T12:57:28;28.60;47.40
13960;DHT22;7052;51.050;3.716;2022-08-01T13:00:07;28.60;46.70
13960;DHT22;7052;51.050;3.716;2022-08-01T13:02:35;28.50;46.90
13960;DHT22;7052;51.050;3.716;2022-08-01T13:05:03;28.50;46.50
13960;DHT22;7052;51.050;3.716;2022-08-01T13:07:38;28.60;45.90
13960;DHT22;7052;51.050;3.716;2022-08-01T13:10:06;28.50;45.60
13960;DHT22;7052;51.050;3.716;2022-08-01T13:12:33;28.10;46.00
13960;DHT22;7052;51.050;3.716;2022-08-01T13:15:19;27.90;46.70
13960;DHT22;7052;51.050;3.716;2022-08-01T13:17:46;27.60;47.60
13960;DHT22;7052;51.050;3.716;2022-08-01T13:20:22;27.50;48.40
13960;DHT22;7052;51.050;3.716;2022-08-01T13:22:49;27.30;48.60
13960;DHT22;7052;51.050;3.716;2022-08-01T13:25:17;27.20;48.50
13960;DHT22;7052;51.050;3.716;2022-08-01T13:27:44;27.00;48.70
13960;DHT22;7052;51.050;3.716;2022-08-01T13:30:13;27.00;48.10
13960;DHT22;7052;51.050;3.716;2022-08-01T13:32:43;27.10;47.80
13960;DHT22;7052;51.050;3.716;2022-08-01T13:35:12;27.20;47.30
13960;DHT22;7052;51.050;3.716;2022-08-01T13:37:41;27.20;46.60
13960;DHT22;7052;51.050;3.716;2022-08-01T13:40:10;27.20;45.50
13960;DHT22;7052;51.050;3.716;2022-08-01T13:42:37;27.30;46.20
13960;DHT22;7052;51.050;3.716;2022-08-01T13:45:05;27.40;46.10
13960;DHT22;7052;51.050;3.716;2022-08-01T13:47:36;27.60;45.60
13960;DHT22;7052;51.050;3.716;2022-08-01T13:50:05;27.80;45.20
13960;DHT22;7052;51.050;3.716;2022-08-01T13:52:32;28.00;45.10
13960;DHT22;7052;51.050;3.716;2022-08-01T13:54:59;28.30;44.60
13960;DHT22;7052;51.050;3.716;2022-08-01T13:57:26;28.40;44.20
13960;DHT22;7052;51.050;3.716;2022-08-01T13:59:53;28.30;44.30
13960;DHT22;7052;51.050;3.716;2022-08-01T14:02:20;28.30;44.30
13960;DHT22;7052;51.050;3.716;2022-08-01T14:04:47;28.40;44.10
13960;DHT22;7052;51.050;3.716;2022-08-01T14:07:15;28.20;43.90
13960;DHT22;7052;51.050;3.716;2022-08-01T14:09:42;28.10;44.40
13960;DHT22;7052;51.050;3.716;2022-08-01T14:12:09;28.10;44.10
13960;DHT22;7052;51.050;3.716;2022-08-01T14:14:36;28.10;43.90
13960;DHT22;7052;51.050;3.716;2022-08-01T14:17:04;28.20;43.90
13960;DHT22;7052;51.050;3.716;2022-08-01T14:19:30;28.30;43.50
13960;DHT22;7052;51.050;3.716;2022-08-01T14:21:57;28.30;43.70
13960;DHT22;7052;51.050;3.716;2022-08-01T14:24:26;28.40;43.40
13960;DHT22;7052;51.050;3.716;2022-08-01T14:26:53;28.10;43.10
13960;DHT22;7052;51.050;3.716;2022-08-01T14:29:19;27.70;44.00
13960;DHT22;7052;51.050;3.716;2022-08-01T14:31:46;27.50;44.50
13960;DHT22;7052;51.050;3.716;2022-08-01T14:34:13;27.50;44.20
13960;DHT22;7052;51.050;3.716;2022-08-01T14:36:41;27.50;44.30
13960;DHT22;7052;51.050;3.716;2022-08-01T14:39:08;27.40;45.10
13960;DHT22;7052;51.050;3.716;2022-08-01T14:41:36;27.50;44.50
13960;DHT22;7052;51.050;3.716;2022-08-01T14:44:03;27.60;44.00
13960;DHT22;7052;51.050;3.716;2022-08-01T14:46:31;27.80;43.90
13960;DHT22;7052;51.050;3.716;2022-08-01T14:48:58;27.90;43.70
13960;DHT22;7052;51.050;3.716;2022-08-01T14:51:25;28.00;43.50
13960;DHT22;7052;51.050;3.716;2022-08-01T14:53:52;28.00;43.40
13960;DHT22;7052;51.050;3.716;2022-08-01T14:56:19;27.80;43.20
13960;DHT22;7052;51.050;3.716;2022-08-01T14:58:47;27.70;42.90
13960;DHT22;7052;51.050;3.716;2022-08-01T15:01:14;27.60;42.90
13960;DHT22;7052;51.050;3.716;2022-08-01T15:03:41;27.70;42.50
13960;DHT22;7052;51.050;3.716;2022-08-01T15:06:08;27.80;42.20
13960;DHT22;7052;51.050;3.716;2022-08-01T15:08:37;27.80;42.30
13960;DHT22;7052;51.050;3.716;2022-08-01T15:11:04;27.70;42.50
13960;DHT22;7052;51.050;3.716;2022-08-01T15:13:31;27.80;42.50
13960;DHT22;7052;51.050;3.716;2022-08-01T15:15:59;27.90;42.80
13960;DHT22;7052;51.050;3.716;2022-08-01T15:18:27;27.90;42.70
13960;DHT22;7052;51.050;3.716;2022-08-01T15:20:54;27.90;42.50
13960;DHT22;7052;51.050;3.716;2022-08-01T15:23:21;27.90;42.10
13960;DHT22;7052;51.050;3.716;2022-08-01T15:25:48;27.80;42.20
13960;DHT22;7052;51.050;3.716;2022-08-01T15:28:15;27.80;42.50
13960;DHT22;7052;51.050;3.716;2022-08-01T15:30:42;27.70;42.40
13960;DHT22;7052;51.050;3.716;2022-08-01T15:33:12;27.70;42.80
13960;DHT22;7052;51.050;3.716;2022-08-01T15:35:39;27.80;43.00
13960;DHT22;7052;51.050;3.716;2022-08-01T15:38:06;27.80;42.60
13960;DHT22;7052;51.050;3.716;2022-08-01T15:40:32;27.90;42.20
13960;DHT22;7052;51.050;3.716;2022-08-01T15:43:00;28.00;42.10
13960;DHT22;7052;51.050;3.716;2022-08-01T15:45:27;28.00;41.80
13960;DHT22;7052;51.050;3.716;2022-08-01T15:47:55;28.00;41.90
13960;DHT22;7052;51.050;3.716;2022-08-01T15:50:23;28.10;42.00
13960;DHT22;7052;51.050;3.716;2022-08-01T15:52:50;28.10;42.70
13960;DHT22;7052;51.050;3.716;2022-08-01T15:55:17;27.80;42.00
13960;DHT22;7052;51.050;3.716;2022-08-01T15:57:43;27.70;42.50
13960;DHT22;7052;51.050;3.716;2022-08-01T16:00:11;27.60;42.40
13960;DHT22;7052;51.050;3.716;2022-08-01T16:02:40;27.70;42.20
13960;DHT22;7052;51.050;3.716;2022-08-01T16:05:07;27.80;42.10